Time;durP1;ratioP1;P1;durP2;ratioP2;P2;SDS_P1;SDS_P2;PMS_P1;PMS_P2;Temp;Humidity;BMP_temperature;BMP_pressure;BME280_temperature;BME280_humidity;BME280_pressure;Samples;Min_cycle;Max_cycle;Signal;HPM_P1;HPM_P2
2023/11/15 11:03:40;;;;;;;0.50;0.50;;;;;;;9.31;97.79;97065.69;29395;303;63009;-92
2023/11/15 11:04:15;;;;;;;0.50;0.50;;;;;;;9.32;98.14;97072.72;29394;253;64004;-90
2023/11/15 11:04:48;;;;;;;0.50;0.50;;;;;;;9.34;97.23;97070.56;29395;199;63009;-89
2023/11/15 11:05:57;;;;;;;0.50;0.50;;;;;;;9.37;97.28;97069.97;29395;270;63005;-89
2023/11/15 11:07:07;;;;;;;0.50;0.50;;;;;;;9.47;95.29;97073.72;29395;388;63009;-90
2023/11/15 11:08:31;;;;;;;0.57;0.57;;;;;;;9.54;93.93;97071.50;29417;264;63009;-90
2023/11/15 11:09:33;;;;;;;0.55;0.55;;;;;;;9.59;91.54;97066.87;29395;204;63009;-91
2023/11/15 11:10:34;;;;;;;0.50;0.50;;;;;;;9.55;91.37;97065.00;29394;251;64009;-95
2023/11/15 11:11:32;;;;;;;0.50;0.50;;;;;;;9.53;91.17;97067.16;29395;237;63009;-91
2023/11/15 11:12:15;;;;;;;0.50;0.50;;;;;;;9.49;92.24;97055.28;29395;247;63004;-89
2023/11/15 11:12:47;;;;;;;0.50;0.50;;;;;;;9.48;92.80;97059.87;29395;250;63009;-91
2023/11/15 11:14:18;;;;;;;0.50;0.50;;;;;;;9.49;92.80;97055.28;29395;234;63004;-59
2023/11/15 11:15:35;;;;;;;0.50;0.50;;;;;;;9.54;91.68;97049.84;29395;229;63009;-58
2023/11/15 11:16:36;;;;;;;0.50;0.50;;;;;;;9.51;89.98;97047.69;29394;218;64013;-55
2023/11/15 11:17:32;;;;;;;0.50;0.50;;;;;;;9.53;89.85;97053.63;29395;272;63009;-61
2023/11/15 11:18:12;;;;;;;0.50;0.50;;;;;;;9.54;88.62;97047.94;29395;218;63009;-58
2023/11/15 11:18:44;;;;;;;0.50;0.50;;;;;;;9.52;88.25;97050.09;29395;218;63004;-56
2023/11/15 11:19:27;;;;;;;0.50;0.50;;;;;;;9.49;88.08;97055.28;29395;198;63013;-58
2023/11/15 11:20:00;;;;;;;0.50;0.50;;;;;;;9.47;89.29;97054.75;29395;214;63005;-57
2023/11/15 11:20:35;;;;;;;0.50;0.50;;;;;;;9.47;90.49;97050.13;29395;209;63019;-61
2023/11/15 11:21:08;;;;;;;0.50;0.50;;;;;;;9.47;89.57;97052.03;29394;238;64001;-59
2023/11/15 11:22:17;;;;;;;0.50;0.50;;;;;;;9.47;90.11;97047.44;29395;269;63009;-56
2023/11/15 11:23:22;;;;;;;0.50;0.50;;;;;;;9.49;90.69;97047.16;29395;246;63005;-62
2023/11/15 11:24:11;;;;;;;0.50;0.50;;;;;;;9.54;88.68;97047.94;29395;216;63025;-58
2023/11/15 11:25:21;;;;;;;0.50;0.50;;;;;;;9.54;88.54;97047.12;29395;218;63004;-57
2023/11/15 11:25:55;;;;;;;0.50;0.50;;;;;;;9.52;89.02;97049.31;29395;260;63008;-55
2023/11/15 11:26:34;;;;;;;0.50;0.50;;;;;;;9.51;89.46;97047.69;29394;225;64008;-55
2023/11/15 11:27:31;;;;;;;0.50;0.50;;;;;;;9.55;89.92;97048.75;29395;227;63009;-55
2023/11/15 11:28:03;;;;;;;0.50;0.50;;;;;;;9.58;90.03;97053.59;29395;384;63005;-55
2023/11/15 11:29:05;;;;;;;0.50;0.50;;;;;;;9.61;90.31;97043.00;29395;202;63009;-57
2023/11/15 11:30:12;;;;;;;0.50;0.50;;;;;;;9.73;89.03;97045.34;29395;220;63005;-61
2023/11/15 11:30:43;;;;;;;0.50;0.50;;;;;;;9.81;87.34;97042.03;29395;239;63009;-63
2023/11/15 11:31:19;;;;;;;0.50;0.50;;;;;;;9.85;87.64;97047.69;29395;212;63011;-56
2023/11/15 11:32:31;;;;;;;0.50;0.50;;;;;;;9.85;88.98;97048.50;29394;202;64013;-57
2023/11/15 11:33:15;;;;;;;0.57;0.57;;;;;;;9.83;88.83;97045.25;29417;256;63004;-55
2023/11/15 11:34:09;;;;;;;0.60;0.60;;;;;;;9.86;88.51;97033.84;29395;215;63020;-64
2023/11/15 11:35:25;;;;;;;0.50;0.50;;;;;;;9.86;87.00;97043.87;29395;213;63010;-54
2023/11/15 11:35:57;;;;;;;0.50;0.50;;;;;;;9.87;85.34;97035.47;29395;205;63024;-58
2023/11/15 11:36:50;;;;;;;0.50;0.50;;;;;;;9.89;83.86;97038.69;29395;244;63005;-56
2023/11/15 11:37:44;;;;;;;0.50;0.50;;;;;;;9.87;84.14;97030.03;29394;221;64009;-56
2023/11/15 11:38:43;;;;;;;0.50;0.50;;;;;;;9.80;84.64;97032.28;29395;214;63009;-55
2023/11/15 11:39:23;;;;;;;0.50;0.50;;;;;;;9.79;85.18;97027.94;29395;208;63009;-54
2023/11/15 11:39:55;;;;;;;0.50;0.50;;;;;;;9.80;84.82;97029.56;29395;228;63004;-54
2023/11/15 11:40:32;;;;;;;0.50;0.50;;;;;;;9.80;85.73;97024.12;29395;208;63009;-58
2023/11/15 11:41:04;;;;;;;0.50;0.50;;;;;;;9.85;83.79;97026.81;29395;239;63004;-61
2023/11/15 11:41:38;;;;;;;0.50;0.50;;;;;;;9.87;83.17;97019.22;29395;231;63009;-56
2023/11/15 11:42:24;;;;;;;0.50;0.50;;;;;;;9.79;85.74;97025.22;29395;264;63005;-56
2023/11/15 11:43:18;;;;;;;0.50;0.50;;;;;;;9.73;85.07;97023.66;29394;227;64014;-56
2023/11/15 11:43:59;;;;;;;0.60;0.60;;;;;;;9.77;84.34;97019.28;29395;211;63005;-56
2023/11/15 11:44:50;;;;;;;0.60;0.60;;;;;;;9.77;84.41;97018.47;29417;218;63018;-56
2023/11/15 11:45:27;;;;;;;0.50;0.50;;;;;;;9.78;85.11;97026.31;29395;239;63005;-56
2023/11/15 11:46:15;;;;;;;0.50;0.50;;;;;;;9.76;85.53;97023.09;29395;286;63009;-56
2023/11/15 11:47:03;;;;;;;0.50;0.50;;;;;;;9.78;85.12;97020.09;29395;202;63012;-56
2023/11/15 11:47:48;;;;;;;0.50;0.50;;;;;;;9.81;84.34;97017.62;29395;202;63009;-56
2023/11/15 11:48:25;;;;;;;0.60;0.60;;;;;;;9.83;84.53;97010.03;29394;205;64008;-56
2023/11/15 11:49:02;;;;;;;0.50;0.50;;;;;;;9.85;84.52;97021.37;29395;212;63008;-65
2023/11/15 11:49:46;;;;;;;0.50;0.50;;;;;;;9.85;83.55;97013.25;29395;228;63005;-56
2023/11/15 11:50:20;;;;;;;0.50;0.50;;;;;;;9.89;82.99;97011.59;29395;210;63009;-61
2023/11/15 11:51:05;;;;;;;0.50;0.50;;;;;;;9.86;83.14;97016.78;29395;218;63011;-57
2023/11/15 11:51:37;;;;;;;0.50;0.50;;;;;;;9.83;83.47;97001.91;29395;214;63009;-56
2023/11/15 11:52:08;;;;;;;0.70;0.70;;;;;;;9.82;84.67;97016.53;29395;244;63005;-56
2023/11/15 11:52:40;;;;;;;0.50;0.50;;;;;;;9.85;84.23;97004.31;29395;204;63005;-57
2023/11/15 11:53:11;;;;;;;0.50;0.50;;;;;;;9.83;83.87;97012.75;29395;204;63005;-56
2023/11/15 11:53:44;;;;;;;0.50;0.50;;;;;;;9.82;83.32;97018.44;29394;211;64013;-70
2023/11/15 11:54:23;;;;;;;0.50;0.50;;;;;;;9.81;83.38;97004.09;29395;207;63004;-55
2023/11/15 11:55:00;;;;;;;0.50;0.50;;;;;;;9.82;83.62;97005.69;29395;202;63009;-59
2023/11/15 11:55:32;;;;;;;0.50;0.50;;;;;;;9.78;84.37;97010.06;29395;230;63004;-57
2023/11/15 11:56:10;;;;;;;0.50;0.50;;;;;;;9.78;83.35;97001.12;29395;201;63027;-56
2023/11/15 11:56:48;;;;;;;0.50;0.50;;;;;;;9.75;83.16;97016.84;29395;253;63003;-63
2023/11/15 11:57:26;;;;;;;0.60;0.60;;;;;;;9.76;81.89;97001.41;29395;237;63009;-62
2023/11/15 11:58:02;;;;;;;0.50;0.50;;;;;;;9.79;82.36;97003.56;29395;197;63009;-57
2023/11/15 11:58:35;;;;;;;0.50;0.50;;;;;;;9.82;82.21;97005.69;29395;300;63009;-56
2023/11/15 11:59:12;;;;;;;0.50;0.50;;;;;;;9.80;82.20;97001.66;29394;229;64009;-57
2023/11/15 12:00:18;;;;;;;0.50;0.50;;;;;;;9.79;82.23;97006.25;29395;196;63009;-60
2023/11/15 12:00:49;;;;;;;0.50;0.50;;;;;;;9.81;81.92;96998.66;29395;233;63016;-64
2023/11/15 12:01:21;;;;;;;0.50;0.50;;;;;;;9.81;82.20;97005.97;29395;214;63009;-57
2023/11/15 12:01:52;;;;;;;0.50;0.50;;;;;;;9.82;82.74;97004.87;29395;267;63004;-68
2023/11/15 12:02:34;;;;;;;0.50;0.50;;;;;;;9.85;81.86;97007.03;29395;234;63009;-55
2023/11/15 12:03:09;;;;;;;0.55;0.55;;;;;;;9.89;81.32;96999.94;29395;197;63004;-59
2023/11/15 12:03:47;;;;;;;0.50;0.50;;;;;;;9.91;81.43;97004.00;29395;242;63008;-59
2023/11/15 12:04:21;;;;;;;0.50;0.50;;;;;;;9.92;81.41;97000.19;29394;224;63998;-57
2023/11/15 12:04:54;;;;;;;0.50;0.50;;;;;;;9.92;81.77;97005.63;29395;202;63009;-54
2023/11/15 12:05:26;;;;;;;0.50;0.50;;;;;;;9.91;82.37;97006.72;29395;202;63005;-55
2023/11/15 12:05:59;;;;;;;0.50;0.50;;;;;;;9.90;82.11;97007.78;29395;196;63009;-57
2023/11/15 12:06:32;;;;;;;0.50;0.50;;;;;;;9.91;82.77;97012.13;29395;281;63014;-58
2023/11/15 12:07:09;;;;;;;0.50;0.50;;;;;;;9.91;82.93;97004.00;29395;226;63009;-57
2023/11/15 12:07:44;;;;;;;0.50;0.50;;;;;;;9.92;82.91;97010.22;29395;225;63005;-57
2023/11/15 12:08:18;;;;;;;0.50;0.50;;;;;;;9.96;82.32;97001.25;29395;264;63009;-56
2023/11/15 12:08:51;;;;;;;0.50;0.50;;;;;;;9.98;82.23;97004.47;29395;322;63004;-56
2023/11/15 12:09:23;;;;;;;0.50;0.50;;;;;;;10.00;82.04;97007.72;29394;252;64013;-57
2023/11/15 12:10:02;;;;;;;0.50;0.50;;;;;;;10.02;82.15;97008.22;29395;202;63004;-56
2023/11/15 12:10:34;;;;;;;0.50;0.50;;;;;;;10.03;82.58;97012.56;29395;318;63009;-59
2023/11/15 12:11:07;;;;;;;0.50;0.50;;;;;;;10.05;82.20;97013.06;29395;204;63004;-72
2023/11/15 12:11:40;;;;;;;0.50;0.50;;;;;;;10.06;81.24;97011.97;29395;212;63015;-60
2023/11/15 12:12:13;;;;;;;0.43;0.43;;;;;;;10.06;80.99;97006.53;29395;210;63005;-56
2023/11/15 12:12:56;;;;;;;0.50;0.50;;;;;;;10.07;80.46;97007.34;29395;197;63009;-57
2023/11/15 12:13:47;;;;;;;0.50;0.50;;;;;;;10.08;80.69;97008.97;29395;241;63005;-55
2023/11/15 12:14:18;;;;;;;0.50;0.50;;;;;;;10.15;79.90;97008.63;29395;251;63009;-58
2023/11/15 12:14:52;;;;;;;0.50;0.50;;;;;;;10.17;79.80;97006.44;29394;227;64009;-55
2023/11/15 12:15:24;;;;;;;0.50;0.50;;;;;;;10.19;80.43;97012.38;29395;206;63023;-56
2023/11/15 12:15:56;;;;;;;0.50;0.50;;;;;;;10.19;81.06;97004.25;29395;215;63004;-63
2023/11/15 12:16:30;;;;;;;0.50;0.50;;;;;;;10.18;80.53;97008.06;29395;270;63009;-58
2023/11/15 12:17:01;;;;;;;0.50;0.50;;;;;;;10.21;79.28;97002.09;29395;197;63004;-55
2023/11/15 12:17:44;;;;;;;0.50;0.50;;;;;;;10.25;78.88;97005.84;29395;196;63009;-55
2023/11/15 12:18:15;;;;;;;0.50;0.50;;;;;;;10.26;79.03;97010.19;29395;225;63004;-56
2023/11/15 12:19:24;;;;;;;0.50;0.50;;;;;;;10.29;79.08;96993.34;29395;216;63025;-69
2023/11/15 12:19:56;;;;;;;0.50;0.50;;;;;;;10.31;78.80;97004.72;29394;202;63998;-76
2023/11/15 12:20:39;;;;;;;0.50;0.50;;;;;;;10.33;78.56;96994.38;29395;219;63009;-56
2023/11/15 12:21:13;;;;;;;0.50;0.50;;;;;;;10.32;79.37;96998.19;29395;252;63005;-58
2023/11/15 12:21:45;;;;;;;0.50;0.50;;;;;;;10.32;78.76;96998.19;29395;218;63022;-56
2023/11/15 12:22:20;;;;;;;0.50;0.50;;;;;;;10.32;78.40;96992.75;29395;216;63005;-56
2023/11/15 12:23:06;;;;;;;0.62;0.62;;;;;;;10.38;77.29;96981.56;29395;225;63009;-76
2023/11/15 12:23:40;;;;;;;0.50;0.50;;;;;;;10.39;76.99;96990.53;29395;216;63004;-56
2023/11/15 12:24:14;;;;;;;0.50;0.50;;;;;;;10.41;77.60;96988.28;29395;207;63009;-60
2023/11/15 12:24:46;;;;;;;0.50;0.50;;;;;;;10.40;77.41;96989.41;29395;247;63004;-65
2023/11/15 12:25:21;;;;;;;0.50;0.50;;;;;;;10.40;76.44;96990.19;29394;219;64013;-68
2023/11/15 12:25:54;;;;;;;0.50;0.50;;;;;;;10.38;76.73;96980.75;29395;256;63004;-56
2023/11/15 12:26:28;;;;;;;0.50;0.50;;;;;;;10.32;76.75;96992.75;29395;228;63009;-62
2023/11/15 12:27:03;;;;;;;0.50;0.50;;;;;;;10.30;77.12;96989.53;29395;251;63005;-57
2023/11/15 12:27:34;;;;;;;0.50;0.50;;;;;;;10.27;76.91;96995.53;29395;326;63009;-57
2023/11/15 12:28:09;;;;;;;0.50;0.50;;;;;;;10.28;76.93;96997.16;29395;245;63005;-58
2023/11/15 12:28:40;;;;;;;0.50;0.50;;;;;;;10.30;76.20;96989.53;29395;199;63025;-57
2023/11/15 12:29:20;;;;;;;0.50;0.50;;;;;;;10.28;76.83;96997.97;29395;207;63008;-56
2023/11/15 12:29:52;;;;;;;0.50;0.50;;;;;;;10.27;76.11;96992.81;29395;219;63025;-56
2023/11/15 12:30:24;;;;;;;0.50;0.50;;;;;;;10.23;76.04;96991.78;29394;210;64009;-58
2023/11/15 12:30:57;;;;;;;0.50;0.50;;;;;;;10.21;76.15;96996.69;29395;249;63009;-55
2023/11/15 12:31:29;;;;;;;0.50;0.50;;;;;;;10.22;76.93;96993.69;29395;210;63004;-60
2023/11/15 12:32:03;;;;;;;0.95;0.95;;;;;;;10.24;76.55;96990.69;29395;219;63027;-57
2023/11/15 12:32:41;;;;;;;0.50;0.50;;;;;;;10.24;76.80;96985.25;29395;197;63004;-59
2023/11/15 12:33:13;;;;;;;0.50;0.50;;;;;;;10.27;75.86;96996.34;29395;277;63025;-57
2023/11/15 12:33:45;;;;;;;0.50;0.50;;;;;;;10.29;76.24;96998.75;29395;234;63005;-58
2023/11/15 12:34:17;;;;;;;0.50;0.50;;;;;;;10.28;76.69;97003.38;29395;312;63009;-57
2023/11/15 12:34:49;;;;;;;0.50;0.50;;;;;;;10.25;77.16;97000.44;29395;197;63012;-56
2023/11/15 12:35:21;;;;;;;0.50;0.50;;;;;;;10.29;76.46;97004.19;29395;246;63009;-64
2023/11/15 12:35:55;;;;;;;0.50;0.50;;;;;;;10.33;75.95;97002.53;29394;220;64009;-57
2023/11/15 12:36:26;;;;;;;0.50;0.50;;;;;;;10.33;76.18;96995.19;29395;200;63009;-58
2023/11/15 12:36:58;;;;;;;0.50;0.50;;;;;;;10.34;76.95;97004.94;29395;203;63005;-58
2023/11/15 12:37:32;;;;;;;0.50;0.50;;;;;;;10.34;77.40;97004.13;29395;205;63020;-59
2023/11/15 12:38:05;;;;;;;0.50;0.50;;;;;;;10.36;76.94;96994.62;29395;214;63004;-57
2023/11/15 12:38:53;;;;;;;0.50;0.50;;;;;;;10.36;76.74;96996.53;29395;247;63027;-56
2023/11/15 12:39:38;;;;;;;0.50;0.50;;;;;;;10.41;75.64;97002.66;29395;222;63012;-56
2023/11/15 12:40:20;;;;;;;0.50;0.50;;;;;;;10.43;75.85;96993.44;29395;207;63027;-57
2023/11/15 12:41:02;;;;;;;0.50;0.50;;;;;;;10.47;76.11;97005.31;29395;240;63007;-58
2023/11/15 12:41:52;;;;;;;0.50;0.50;;;;;;;10.52;76.10;97003.38;29394;241;64014;-55
2023/11/15 12:42:27;;;;;;;0.50;0.50;;;;;;;10.54;75.88;96995.75;29395;216;63015;-56
2023/11/15 12:43:19;;;;;;;0.50;0.50;;;;;;;10.53;77.14;96999.56;29395;197;63009;-56
2023/11/15 12:44:01;;;;;;;0.50;0.50;;;;;;;10.54;76.82;97001.19;29416;196;64009;-57
2023/11/15 12:44:44;;;;;;;0.50;0.50;;;;;;;10.57;78.15;97000.59;29395;214;63009;-56
2023/11/15 12:45:35;;;;;;;0.50;0.50;;;;;;;10.61;77.90;96996.22;29395;242;63005;-61
2023/11/15 12:46:17;;;;;;;0.50;0.50;;;;;;;10.68;76.68;96991.25;29417;374;63009;-57
2023/11/15 12:46:55;;;;;;;0.50;0.50;;;;;;;10.73;76.56;96988.47;29394;240;64009;-56
2023/11/15 12:47:26;;;;;;;0.50;0.50;;;;;;;10.77;76.77;96998.72;29395;306;63009;-58
2023/11/15 12:48:05;;;;;;;0.50;0.50;;;;;;;10.82;77.26;96993.22;29395;219;63004;-58
2023/11/15 12:48:41;;;;;;;0.50;0.50;;;;;;;10.86;75.78;96995.06;29395;259;63008;-55
2023/11/15 12:49:14;;;;;;;0.50;0.50;;;;;;;10.89;75.57;96997.19;29395;213;63005;-58
2023/11/15 12:49:45;;;;;;;0.50;0.50;;;;;;;10.95;75.85;97011.53;29395;243;63024;-55
2023/11/15 12:50:21;;;;;;;0.50;0.50;;;;;;;10.97;74.54;96990.31;29395;221;63005;-56
2023/11/15 12:51:04;;;;;;;0.50;0.50;;;;;;;11.00;74.25;96987.03;29394;219;64013;-56
2023/11/15 12:51:47;;;;;;;0.50;0.50;;;;;;;10.98;74.63;96994.66;29395;207;63005;-55
2023/11/15 12:52:37;;;;;;;0.50;0.50;;;;;;;11.01;75.01;97004.94;29395;266;63009;-56
2023/11/15 12:53:10;;;;;;;0.50;0.50;;;;;;;11.05;74.60;97000.53;29395;198;63004;-56
2023/11/15 12:53:42;;;;;;;0.50;0.50;;;;;;;11.09;74.13;97006.97;29395;251;63016;-60
2023/11/15 12:54:17;;;;;;;0.50;0.50;;;;;;;11.05;73.19;96990.47;29395;229;63004;-61
2023/11/15 12:54:55;;;;;;;0.50;0.50;;;;;;;11.07;73.20;96998.31;29395;222;63009;-54
2023/11/15 12:56:14;;;;;;;0.50;0.50;;;;;;;11.02;73.93;96992.97;29395;277;63004;-55
2023/11/15 12:57:04;;;;;;;0.50;0.50;;;;;;;11.01;74.15;96996.78;29394;205;64014;-55
2023/11/15 12:57:52;;;;;;;0.50;0.50;;;;;;;11.00;74.44;97008.75;29395;206;63018;-57
2023/11/15 12:58:51;;;;;;;0.50;0.50;;;;;;;10.91;74.78;97003.16;29395;264;63009;-56
2023/11/15 12:59:38;;;;;;;0.50;0.50;;;;;;;10.89;74.23;96996.38;29395;253;63005;-58
2023/11/15 13:00:28;;;;;;;0.50;0.50;;;;;;;10.88;73.83;97001.00;29395;250;63009;-59
2023/11/15 13:01:03;;;;;;;0.50;0.50;;;;;;;10.87;74.84;97007.53;29394;269;64013;-60
2023/11/15 13:01:36;;;;;;;0.50;0.50;;;;;;;10.91;73.73;97007.78;29395;203;63004;-55
2023/11/15 13:02:11;;;;;;;0.60;0.60;;;;;;;10.93;74.33;97008.28;29395;221;63009;-58
2023/11/15 13:02:43;;;;;;;0.50;0.50;;;;;;;10.90;74.21;97008.88;29395;212;63004;-64
2023/11/15 13:03:18;;;;;;;0.50;0.50;;;;;;;10.91;73.39;96999.63;29395;287;63008;-65
2023/11/15 13:03:56;;;;;;;0.50;0.50;;;;;;;10.90;73.10;96998.00;29395;199;63005;-65
2023/11/15 13:04:47;;;;;;;0.50;0.50;;;;;;;10.86;73.91;97007.84;29394;209;64014;-56
2023/11/15 13:05:27;;;;;;;0.50;0.50;;;;;;;10.85;73.50;97001.59;29417;221;63005;-58
2023/11/15 13:06:16;;;;;;;0.50;0.50;;;;;;;10.86;73.18;96991.53;29417;228;63009;-62
2023/11/15 13:06:47;;;;;;;0.50;0.50;;;;;;;10.83;73.16;96992.13;29394;265;64009;-56
2023/11/15 13:07:18;;;;;;;0.50;0.50;;;;;;;10.81;73.88;96991.59;29395;220;63009;-57
2023/11/15 13:07:49;;;;;;;0.50;0.50;;;;;;;10.80;73.83;96998.13;29395;212;63004;-56
2023/11/15 13:08:20;;;;;;;0.50;0.50;;;;;;;10.80;74.10;97009.00;29395;198;63009;-56
2023/11/15 13:08:53;;;;;;;0.50;0.50;;;;;;;10.82;74.76;97023.88;29395;196;63004;-55
2023/11/15 13:09:24;;;;;;;0.50;0.50;;;;;;;10.81;73.09;96994.31;29395;216;63009;-56
2023/11/15 13:09:56;;;;;;;0.50;0.50;;;;;;;10.81;73.07;97024.19;29395;299;63004;-59
2023/11/15 13:10:29;;;;;;;0.50;0.50;;;;;;;10.80;73.38;97014.41;29395;205;63008;-57
2023/11/15 13:11:02;;;;;;;0.50;0.50;;;;;;;10.83;73.05;97005.69;29395;217;63004;-55
2023/11/15 13:11:38;;;;;;;0.50;0.50;;;;;;;10.77;74.55;97009.56;29395;212;63009;-55
2023/11/15 13:12:21;;;;;;;0.50;0.50;;;;;;;10.75;74.06;97013.37;29394;222;64009;-56
2023/11/15 13:12:53;;;;;;;0.50;0.50;;;;;;;10.76;73.33;97006.03;29395;260;63009;-62
2023/11/15 13:13:25;;;;;;;0.50;0.50;;;;;;;10.73;72.22;97014.81;29395;241;63005;-63
2023/11/15 13:13:57;;;;;;;0.50;0.50;;;;;;;10.72;72.58;97008.56;29395;248;63009;-58
2023/11/15 13:14:29;;;;;;;0.50;0.50;;;;;;;10.68;72.66;96999.38;29395;202;63005;-69
2023/11/15 13:15:00;;;;;;;0.50;0.50;;;;;;;10.66;73.18;97009.72;29395;269;63009;-56
2023/11/15 13:15:33;;;;;;;0.50;0.50;;;;;;;10.63;73.50;97004.87;29395;209;63004;-56
2023/11/15 13:16:07;;;;;;;0.50;0.50;;;;;;;10.58;74.68;97007.63;29395;298;63009;-57
2023/11/15 13:16:39;;;;;;;0.50;0.50;;;;;;;10.55;75.10;97027.22;29395;199;63018;-73
2023/11/15 13:17:11;;;;;;;0.50;0.50;;;;;;;10.54;74.78;97005.78;29394;219;64013;-56
2023/11/15 13:17:42;;;;;;;0.50;0.50;;;;;;;10.48;75.12;97013.19;29395;202;63004;-57
2023/11/15 13:18:14;;;;;;;0.50;0.50;;;;;;;10.45;75.49;97023.78;29395;318;63009;-57
2023/11/15 13:18:48;;;;;;;0.50;0.50;;;;;;;10.42;75.13;97022.47;29395;221;63005;-58
2023/11/15 13:19:19;;;;;;;0.50;0.50;;;;;;;10.43;75.66;97018.66;29395;226;63009;-61
2023/11/15 13:19:50;;;;;;;0.50;0.50;;;;;;;10.44;75.02;97012.13;29395;213;63005;-57
2023/11/15 13:20:22;;;;;;;0.50;0.50;;;;;;;10.42;75.45;97008.91;29395;272;63009;-59
2023/11/15 13:20:57;;;;;;;0.50;0.50;;;;;;;10.43;75.40;97021.37;29395;330;63005;-65
2023/11/15 13:21:30;;;;;;;0.50;0.50;;;;;;;10.44;75.69;97022.19;29395;211;63009;-67
2023/11/15 13:22:04;;;;;;;0.50;0.50;;;;;;;10.41;75.07;97018.94;29395;224;63005;-59
2023/11/15 13:22:37;;;;;;;0.50;0.50;;;;;;;10.38;75.62;97013.31;29394;241;64013;-65
2023/11/15 13:23:08;;;;;;;0.50;0.50;;;;;;;10.35;74.99;97020.13;29395;225;63004;-58
2023/11/15 13:23:47;;;;;;;0.50;0.50;;;;;;;10.37;75.54;97022.56;29395;218;63009;-65
2023/11/15 13:24:18;;;;;;;0.50;0.50;;;;;;;10.33;75.29;97018.78;29395;240;63004;-57
2023/11/15 13:24:49;;;;;;;0.50;0.50;;;;;;;10.30;76.26;97022.06;29395;232;63008;-58
2023/11/15 13:25:21;;;;;;;0.50;0.50;;;;;;;10.29;75.30;97017.75;29395;220;63004;-62
2023/11/15 13:25:55;;;;;;;0.50;0.50;;;;;;;10.29;75.38;97017.75;29395;244;63009;-57
2023/11/15 13:26:26;;;;;;;0.50;0.50;;;;;;;10.26;75.58;97018.31;29395;251;63005;-70
2023/11/15 13:26:58;;;;;;;0.50;0.50;;;;;;;10.29;75.69;97015.03;29395;247;63009;-68
2023/11/15 13:27:29;;;;;;;0.50;0.50;;;;;;;10.27;75.68;97023.47;29394;258;64009;-56
2023/11/15 13:28:03;;;;;;;0.50;0.50;;;;;;;10.27;76.03;97028.06;29395;270;63009;-59
2023/11/15 13:28:34;;;;;;;0.60;0.60;;;;;;;10.29;75.35;97028.59;29395;255;63005;-57
2023/11/15 13:29:05;;;;;;;0.50;0.50;;;;;;;10.27;75.64;97028.87;29395;197;63009;-56
2023/11/15 13:29:37;;;;;;;0.50;0.50;;;;;;;10.23;75.99;97021.59;29395;217;63005;-56
2023/11/15 13:30:09;;;;;;;0.50;0.50;;;;;;;10.19;76.22;97017.81;29395;327;63009;-56
2023/11/15 13:30:43;;;;;;;0.50;0.50;;;;;;;10.21;76.67;97034.63;29395;218;63004;-68
2023/11/15 13:31:16;;;;;;;0.50;0.50;;;;;;;10.21;76.06;97030.03;29394;205;64013;-55
2023/11/15 13:31:49;;;;;;;0.50;0.50;;;;;;;10.21;75.90;97024.59;29395;220;63016;-55
2023/11/15 13:32:20;;;;;;;0.50;0.50;;;;;;;10.21;76.28;97037.34;29395;217;63017;-68
2023/11/15 13:32:52;;;;;;;0.50;0.50;;;;;;;10.26;75.14;97018.31;29394;223;64008;-61
2023/11/15 13:33:25;;;;;;;0.50;0.50;;;;;;;10.23;75.04;97021.59;29395;256;63009;-57
2023/11/15 13:33:56;;;;;;;0.50;0.50;;;;;;;10.22;76.22;97023.50;29395;306;63005;-66
2023/11/15 13:34:29;;;;;;;0.50;0.50;;;;;;;10.21;76.14;97037.34;29395;264;63009;-57
2023/11/15 13:35:08;;;;;;;0.50;0.50;;;;;;;10.19;76.08;97032.22;29395;240;63005;-65
2023/11/15 13:35:39;;;;;;;0.60;0.60;;;;;;;10.22;76.09;97031.62;29395;248;63009;-62
2023/11/15 13:36:11;;;;;;;0.50;0.50;;;;;;;10.23;76.02;97027.03;29395;254;63010;-57
2023/11/15 13:36:43;;;;;;;0.50;0.50;;;;;;;10.23;76.50;97027.84;29395;226;63016;-57
2023/11/15 13:37:15;;;;;;;0.50;0.50;;;;;;;10.23;76.29;97037.88;29395;207;63005;-57
2023/11/15 13:37:47;;;;;;;0.50;0.50;;;;;;;10.21;77.19;97031.94;29395;222;63009;-59
2023/11/15 13:38:20;;;;;;;0.50;0.50;;;;;;;10.20;77.05;97035.72;29394;258;64009;-68
2023/11/15 13:38:52;;;;;;;0.50;0.50;;;;;;;10.14;77.71;97029.50;29395;211;63009;-57
2023/11/15 13:39:23;;;;;;;0.50;0.50;;;;;;;10.10;77.85;97028.47;29395;227;63004;-67
2023/11/15 13:39:54;;;;;;;0.50;0.50;;;;;;;10.09;77.57;97027.66;29395;222;63008;-66
2023/11/15 13:40:26;;;;;;;0.50;0.50;;;;;;;10.08;77.95;97036.87;29395;219;63004;-71
2023/11/15 13:40:59;;;;;;;0.50;0.50;;;;;;;10.12;78.11;97026.28;29395;243;63014;-69
2023/11/15 13:41:31;;;;;;;0.50;0.50;;;;;;;10.17;77.90;97028.94;29395;212;63005;-69
2023/11/15 13:42:03;;;;;;;0.50;0.50;;;;;;;10.21;77.58;97026.50;29395;252;63009;-58
2023/11/15 13:42:34;;;;;;;0.50;0.50;;;;;;;10.20;78.16;97033.03;29395;298;63005;-59
2023/11/15 13:43:06;;;;;;;0.50;0.50;;;;;;;10.22;78.32;97036.25;29394;260;64013;-65
2023/11/15 13:43:38;;;;;;;0.50;0.50;;;;;;;10.22;77.54;97025.41;29395;202;63005;-58
2023/11/15 13:44:10;;;;;;;0.50;0.50;;;;;;;10.20;77.44;97030.31;29395;291;63009;-69
2023/11/15 13:44:43;;;;;;;0.50;0.50;;;;;;;10.16;77.76;97031.94;29395;224;63014;-59
2023/11/15 13:45:16;;;;;;;0.50;0.50;;;;;;;10.13;78.01;97032.50;29395;209;63009;-58
2023/11/15 13:45:50;;;;;;;0.50;0.50;;;;;;;10.09;78.24;97024.94;29395;273;63004;-56
2023/11/15 13:46:28;;;;;;;0.50;0.50;;;;;;;10.06;78.39;97025.50;29395;202;63009;-58
2023/11/15 13:47:00;;;;;;;0.50;0.50;;;;;;;10.03;78.77;97028.03;29395;226;63004;-78
2023/11/15 13:47:34;;;;;;;0.50;0.50;;;;;;;10.06;78.74;97028.22;29395;219;63008;-65
2023/11/15 13:48:06;;;;;;;0.50;0.50;;;;;;;10.05;78.71;97032.03;29394;202;64008;-60
2023/11/15 13:48:37;;;;;;;0.50;0.50;;;;;;;10.05;78.63;97042.88;29395;267;63009;-58
2023/11/15 13:49:08;;;;;;;0.50;0.50;;;;;;;10.05;78.76;97039.34;29394;318;64009;-66
2023/11/15 13:49:45;;;;;;;0.50;0.50;;;;;;;10.02;79.43;97038.06;29395;207;63009;-58
2023/11/15 13:50:20;;;;;;;0.50;0.50;;;;;;;10.03;79.35;97031.53;29395;197;63005;-58
2023/11/15 13:50:51;;;;;;;0.50;0.50;;;;;;;10.06;79.39;97030.13;29394;245;64013;-57
2023/11/15 13:51:23;;;;;;;0.50;0.50;;;;;;;10.06;79.29;97028.22;29395;207;63005;-58
2023/11/15 13:51:54;;;;;;;0.50;0.50;;;;;;;10.09;80.10;97037.69;29395;331;63020;-57
2023/11/15 13:52:27;;;;;;;0.50;0.50;;;;;;;10.13;79.88;97029.81;29395;249;63009;-58
2023/11/15 13:52:58;;;;;;;0.50;0.50;;;;;;;10.23;80.61;97027.03;29395;205;63009;-58
2023/11/15 13:53:30;;;;;;;0.50;0.50;;;;;;;10.25;80.93;97033.78;29395;232;63004;-68
2023/11/15 13:54:02;;;;;;;0.50;0.50;;;;;;;10.20;82.17;97028.41;29395;292;63009;-68
2023/11/15 13:54:33;;;;;;;0.50;0.50;;;;;;;10.17;80.77;97018.09;29395;250;63004;-70
2023/11/15 13:55:06;;;;;;;0.50;0.50;;;;;;;10.22;80.03;97025.41;29395;225;63016;-67
2023/11/15 13:55:38;;;;;;;0.50;0.50;;;;;;;10.21;79.96;97030.03;29394;290;64008;-69
2023/11/15 13:56:09;;;;;;;0.50;0.50;;;;;;;10.22;79.87;97025.41;29395;224;63009;-64
2023/11/15 13:56:40;;;;;;;0.50;0.50;;;;;;;10.23;79.85;97030.53;29395;209;63005;-78
2023/11/15 13:57:11;;;;;;;0.50;0.50;;;;;;;10.30;79.08;97032.94;29395;212;63009;-68
2023/11/15 13:57:43;;;;;;;0.50;0.50;;;;;;;10.26;78.92;97021.84;29395;224;63005;-58
2023/11/15 13:58:14;;;;;;;0.50;0.50;;;;;;;10.29;79.03;97032.12;29395;215;63009;-68
2023/11/15 13:58:46;;;;;;;0.50;0.50;;;;;;;10.30;79.24;97032.94;29396;197;63010;-66
2023/11/15 13:59:19;;;;;;;0.50;0.50;;;;;;;10.27;79.27;97033.50;29394;202;64013;-67
2023/11/15 13:59:50;;;;;;;0.50;0.50;;;;;;;10.29;79.36;97031.31;29395;223;63008;-57
2023/11/15 14:00:33;;;;;;;0.50;0.50;;;;;;;10.32;78.17;97030.72;29395;260;63009;-66
2023/11/15 14:01:05;;;;;;;0.50;0.50;;;;;;;10.28;78.13;97029.69;29395;233;63004;-64
2023/11/15 14:01:36;;;;;;;0.50;0.50;;;;;;;10.27;78.57;97036.22;29395;222;63009;-66
2023/11/15 14:02:08;;;;;;;0.50;0.50;;;;;;;10.25;78.83;97030.25;29395;224;63004;-56
2023/11/15 14:02:43;;;;;;;0.50;0.50;;;;;;;10.23;78.63;97029.75;29395;202;63008;-68
2023/11/15 14:03:14;;;;;;;0.50;0.50;;;;;;;10.23;78.96;97032.44;29395;215;63004;-56
2023/11/15 14:03:46;;;;;;;0.50;0.50;;;;;;;10.22;78.85;97033.53;29395;204;63009;-68
2023/11/15 14:04:17;;;;;;;0.50;0.50;;;;;;;10.21;78.88;97035.44;29394;233;63999;-65
2023/11/15 14:04:49;;;;;;;0.50;0.50;;;;;;;10.20;78.95;97036.53;29395;237;63009;-67